createdAt,value
2023-04-27T00:00:43.771Z,76.62
2023-04-27T00:03:21.840Z,76.55
2023-04-27T00:05:54.561Z,76.65
2023-04-27T00:08:27.444Z,76.53
2023-04-27T00:11:01.529Z,76.16
2023-04-27T00:13:33.810Z,76.11
2023-04-27T00:16:10.613Z,77.19
2023-04-27T00:18:43.547Z,77.46
2023-04-27T00:21:16.312Z,78.12
2023-04-27T00:23:49.859Z,77.94
2023-04-27T00:26:24.037Z,78.06
2023-04-27T00:28:57.053Z,77.86
2023-04-27T00:31:30.290Z,77.71
2023-04-27T00:34:04.494Z,77.92
2023-04-27T00:36:36.444Z,77.19
2023-04-27T00:39:10.753Z,77.26
2023-04-27T00:41:44.084Z,77.67
2023-04-27T00:44:23.616Z,78.34
2023-04-27T00:46:56.915Z,78.11
2023-04-27T00:49:31.107Z,78.13
2023-04-27T00:52:03.887Z,77.82
2023-04-27T00:54:36.769Z,78.40
2023-04-27T00:57:09.201Z,78.89
2023-04-27T00:59:41.741Z,79.25
2023-04-27T01:02:15.106Z,79.42
2023-04-27T01:04:47.912Z,79.77
2023-04-27T01:07:20.301Z,79.73
2023-04-27T01:09:55.654Z,80.02
2023-04-27T01:12:29.617Z,79.91
2023-04-27T01:15:02.924Z,79.76
2023-04-27T01:17:36.088Z,79.83
2023-04-27T01:20:12.651Z,80.13
2023-04-27T01:22:45.261Z,79.95
2023-04-27T01:25:18.086Z,80.25
2023-04-27T01:27:50.625Z,80.09
2023-04-27T01:30:23.456Z,80.70
2023-04-27T01:32:57.159Z,80.41
2023-04-27T01:35:33.108Z,80.98
2023-04-27T01:38:06.182Z,80.74
2023-04-27T01:40:39.026Z,80.60
2023-04-27T01:43:11.436Z,81.28
2023-04-27T01:45:44.018Z,80.89
2023-04-27T01:48:16.792Z,80.53
2023-04-27T01:50:50.216Z,80.24
2023-04-27T01:53:22.593Z,80.14
2023-04-27T01:55:56.198Z,81.03
2023-04-27T01:58:31.280Z,81.33
2023-04-27T02:01:04.579Z,81.63
2023-04-27T02:03:39.680Z,81.64
2023-04-27T02:06:13.562Z,81.14
2023-04-27T02:08:46.220Z,81.57
2023-04-27T02:11:19.978Z,81.46
2023-04-27T02:13:52.321Z,81.47
2023-04-27T02:16:25.541Z,81.93
2023-04-27T02:18:59.488Z,81.88
2023-04-27T02:21:32.104Z,82.22
2023-04-27T02:24:07.220Z,81.98
2023-04-27T02:26:40.079Z,82.10
2023-04-27T02:29:14.283Z,82.34
2023-04-27T02:31:48.916Z,82.53
2023-04-27T02:34:21.426Z,82.35
2023-04-27T02:36:54.404Z,82.22
2023-04-27T02:39:26.839Z,81.59
2023-04-27T02:42:00.851Z,82.03
2023-04-27T02:44:34.440Z,82.48
2023-04-27T02:47:07.690Z,82.76
2023-04-27T02:49:40.313Z,82.63
2023-04-27T02:52:12.767Z,82.33
2023-04-27T02:54:46.784Z,82.42
2023-04-27T02:57:20.035Z,82.68
2023-04-27T02:59:54.725Z,82.92
2023-04-27T03:02:28.442Z,82.56
2023-04-27T03:05:03.921Z,82.83
2023-04-27T03:07:37.187Z,83.26
2023-04-27T03:10:11.150Z,82.94
2023-04-27T03:12:43.708Z,83.27
2023-04-27T03:15:16.003Z,83.65
2023-04-27T03:17:48.760Z,83.82
2023-04-27T03:20:23.484Z,83.88
2023-04-27T03:22:56.190Z,84.05
2023-04-27T03:25:29.353Z,84.03
2023-04-27T03:28:04.536Z,84.26
2023-04-27T03:30:40.157Z,84.39
2023-04-27T03:33:12.778Z,84.55
2023-04-27T03:35:55.723Z,84.68
2023-04-27T03:38:29.594Z,84.82
2023-04-27T03:41:04.616Z,84.83
2023-04-27T03:43:37.630Z,84.82
2023-04-27T03:46:15.446Z,84.89
2023-04-27T03:48:59.105Z,84.38
2023-04-27T03:51:33.436Z,84.48
2023-04-27T03:54:06.136Z,83.62
2023-04-27T03:56:39.826Z,84.25
2023-04-27T03:59:12.787Z,83.93
2023-04-27T04:01:50.871Z,83.97
2023-04-27T04:04:23.785Z,83.61
2023-04-27T04:06:56.950Z,83.92
2023-04-27T04:09:30.997Z,83.65
2023-04-27T04:12:04.646Z,84.17
2023-04-27T04:14:37.886Z,83.87
2023-04-27T04:17:12.319Z,84.55
2023-04-27T04:19:46.375Z,84.94
2023-04-27T04:22:18.774Z,83.84
2023-04-27T04:24:52.615Z,80.55
2023-04-27T04:27:25.237Z,76.64
2023-04-27T04:29:59.103Z,71.44
2023-04-27T04:32:31.934Z,67.14
2023-04-27T04:35:06.299Z,62.46
2023-04-27T04:37:39.911Z,59.42
2023-04-27T04:40:15.137Z,55.54
2023-04-27T04:42:48.505Z,52.64
2023-04-27T04:45:22.007Z,51.53
2023-04-27T04:47:55.950Z,48.55
2023-04-27T04:50:31.015Z,47.12
2023-04-27T04:53:05.615Z,44.39
2023-04-27T04:55:38.815Z,44.30
2023-04-27T04:58:13.493Z,41.54
2023-04-27T05:00:49.810Z,41.28
2023-04-27T05:03:22.504Z,39.47
2023-04-27T05:05:55.652Z,39.93
2023-04-27T05:08:28.009Z,37.71
2023-04-27T05:11:02.977Z,36.14
2023-04-27T05:13:35.823Z,35.15
2023-04-27T05:16:09.836Z,32.86
2023-04-27T05:18:42.544Z,32.83
2023-04-27T05:21:21.027Z,33.11
2023-04-27T05:23:53.376Z,31.98
2023-04-27T05:26:26.493Z,30.62
2023-04-27T05:28:57.257Z,28.81
2023-04-27T05:31:30.848Z,29.86
2023-04-27T05:34:03.230Z,29.02
2023-04-27T05:36:36.223Z,28.76
2023-04-27T05:39:08.769Z,29.02
2023-04-27T05:41:42.006Z,29.84
2023-04-27T05:44:14.229Z,31.05
2023-04-27T05:46:46.804Z,34.09
2023-04-27T05:49:19.554Z,33.48
2023-04-27T05:51:52.218Z,35.83
2023-04-27T05:54:24.522Z,36.33
2023-04-27T05:56:57.846Z,38.24
2023-04-27T05:59:30.378Z,39.55
2023-04-27T06:02:03.168Z,40.12
2023-04-27T06:04:36.947Z,40.21
2023-04-27T06:07:18.281Z,41.43
2023-04-27T06:09:51.793Z,41.88
2023-04-27T06:12:24.905Z,42.35
2023-04-27T06:14:58.101Z,44.14
2023-04-27T06:17:30.837Z,44.87
2023-04-27T06:20:07.028Z,46.18
2023-04-27T06:22:39.794Z,47.69
2023-04-27T06:25:12.638Z,48.59
2023-04-27T06:27:46.092Z,48.60
2023-04-27T06:30:18.818Z,49.12
2023-04-27T06:32:52.600Z,50.05
2023-04-27T06:35:25.859Z,50.06
2023-04-27T06:37:59.411Z,51.17
2023-04-27T06:40:31.739Z,50.96
2023-04-27T06:43:04.161Z,49.22
2023-04-27T06:45:36.683Z,47.96
2023-04-27T06:48:09.470Z,45.68
2023-04-27T06:50:42.000Z,43.33
2023-04-27T06:53:14.600Z,41.15
2023-04-27T06:55:48.568Z,39.65
2023-04-27T06:58:21.271Z,38.77
2023-04-27T07:00:56.557Z,38.15
2023-04-27T07:03:29.367Z,38.91
2023-04-27T07:06:02.377Z,39.97
2023-04-27T07:08:35.019Z,40.16
2023-04-27T07:11:07.636Z,40.74
2023-04-27T07:13:40.196Z,41.82
2023-04-27T07:16:12.933Z,42.74
2023-04-27T07:18:45.661Z,42.23
2023-04-27T07:21:18.433Z,41.24
2023-04-27T07:23:51.351Z,41.94
2023-04-27T07:26:25.199Z,41.85
2023-04-27T07:28:58.126Z,42.88
2023-04-27T07:31:32.103Z,44.26
2023-04-27T07:34:05.326Z,44.54
2023-04-27T07:36:38.308Z,44.48
2023-04-27T07:39:12.123Z,44.83
2023-04-27T07:41:43.218Z,45.10
2023-04-27T07:44:15.627Z,47.06
2023-04-27T07:46:49.650Z,47.53
2023-04-27T07:49:21.932Z,48.42
2023-04-27T07:51:54.609Z,47.73
2023-04-27T07:54:27.071Z,46.79
2023-04-27T07:56:59.713Z,45.02
2023-04-27T07:59:33.145Z,44.78
2023-04-27T08:02:18.255Z,45.36
2023-04-27T08:04:52.727Z,45.98
2023-04-27T08:07:24.303Z,45.99
2023-04-27T08:09:57.229Z,46.34
2023-04-27T08:12:31.644Z,46.96
2023-04-27T08:15:04.276Z,48.26
2023-04-27T08:17:37.459Z,48.47
2023-04-27T08:20:13.093Z,49.88
2023-04-27T08:22:46.987Z,48.51
2023-04-27T08:25:19.376Z,48.73
2023-04-27T08:27:52.001Z,47.35
2023-04-27T08:30:24.224Z,47.62
2023-04-27T08:32:56.881Z,47.87
2023-04-27T08:35:31.861Z,47.62
2023-04-27T08:38:04.700Z,47.92
2023-04-27T08:40:37.072Z,48.17
2023-04-27T08:43:11.085Z,47.32
2023-04-27T08:45:50.050Z,48.20
2023-04-27T08:48:23.159Z,46.09
2023-04-27T08:50:57.794Z,46.02
2023-04-27T08:53:31.036Z,46.14
2023-04-27T08:56:05.969Z,44.16
2023-04-27T08:58:41.604Z,44.17
2023-04-27T09:01:14.087Z,43.21
2023-04-27T09:03:48.008Z,44.76
2023-04-27T09:06:33.006Z,45.11
2023-04-27T09:09:07.141Z,44.84
2023-04-27T09:11:41.124Z,46.93
2023-04-27T09:14:24.978Z,46.20
2023-04-27T09:17:01.944Z,45.60
2023-04-27T09:19:36.130Z,43.45
2023-04-27T09:22:13.930Z,44.70
2023-04-27T09:24:54.960Z,45.10
2023-04-27T09:27:27.806Z,43.66
2023-04-27T09:30:02.249Z,44.26
2023-04-27T09:32:34.822Z,44.63
2023-04-27T09:35:16.116Z,43.78
2023-04-27T09:37:48.958Z,44.41
2023-04-27T09:40:23.922Z,44.51
2023-04-27T09:42:58.059Z,44.44
2023-04-27T09:45:31.536Z,44.80
2023-04-27T09:48:07.558Z,45.47
2023-04-27T09:50:41.792Z,45.49
2023-04-27T09:53:17.279Z,46.92
2023-04-27T09:55:56.454Z,48.74
2023-04-27T09:58:55.659Z,50.90
2023-04-27T10:01:37.294Z,52.83
2023-04-27T10:04:22.008Z,51.46
2023-04-27T10:07:05.238Z,52.24
2023-04-27T10:09:46.885Z,52.73
2023-04-27T10:12:23.810Z,52.85
2023-04-27T10:14:57.709Z,52.89
2023-04-27T10:17:33.512Z,53.27
2023-04-27T10:20:09.342Z,53.45
2023-04-27T10:22:43.734Z,54.02
2023-04-27T10:25:24.277Z,54.31
2023-04-27T10:27:59.817Z,53.93
2023-04-27T10:30:35.513Z,54.43
2023-04-27T10:33:10.501Z,55.13
2023-04-27T10:35:44.803Z,55.88
2023-04-27T10:38:20.753Z,54.96
2023-04-27T10:41:01.694Z,56.55
2023-04-27T10:43:36.031Z,57.25
2023-04-27T10:46:13.704Z,56.39
2023-04-27T10:48:47.106Z,56.48
2023-04-27T10:51:20.641Z,56.66
2023-04-27T10:53:56.764Z,56.39
2023-04-27T10:56:29.396Z,55.88
2023-04-27T10:59:06.617Z,55.90
2023-04-27T11:01:39.583Z,54.89
2023-04-27T11:04:12.453Z,54.95
2023-04-27T11:06:48.708Z,55.57
2023-04-27T11:09:29.591Z,56.18
2023-04-27T11:12:02.027Z,55.79
2023-04-27T11:14:35.472Z,54.54
2023-04-27T11:17:09.610Z,52.77
2023-04-27T11:19:48.169Z,52.52
2023-04-27T11:22:20.887Z,50.27
2023-04-27T11:24:54.569Z,49.81
2023-04-27T11:27:37.166Z,49.62
2023-04-27T11:30:22.742Z,48.72
2023-04-27T11:32:55.321Z,50.38
2023-04-27T11:35:36.897Z,48.36
2023-04-27T11:38:09.621Z,48.53
2023-04-27T11:40:42.970Z,48.99
2023-04-27T11:43:17.035Z,48.78
2023-04-27T11:45:48.320Z,49.68
2023-04-27T11:48:21.201Z,49.14
2023-04-27T11:50:54.800Z,47.83
2023-04-27T11:53:35.430Z,47.79
2023-04-27T11:56:11.364Z,48.30
2023-04-27T11:58:46.394Z,48.11
2023-04-27T12:01:27.655Z,48.19
2023-04-27T12:04:07.853Z,48.39
2023-04-27T12:06:41.203Z,47.38
2023-04-27T12:09:13.624Z,46.63
2023-04-27T12:11:46.073Z,46.82
2023-04-27T12:14:20.220Z,46.14
2023-04-27T12:16:53.110Z,44.70
2023-04-27T12:19:26.302Z,46.12
2023-04-27T12:22:00.401Z,45.19
2023-04-27T12:24:31.836Z,46.24
2023-04-27T12:27:05.917Z,41.64
2023-04-27T12:29:38.389Z,43.01
2023-04-27T12:32:10.999Z,44.32
2023-04-27T12:34:43.731Z,43.94
2023-04-27T12:37:16.122Z,44.17
2023-04-27T12:39:48.968Z,44.85
2023-04-27T12:42:24.689Z,44.27
2023-04-27T12:44:58.090Z,44.86
2023-04-27T12:50:06.762Z,44.90
2023-04-27T12:52:39.362Z,45.89
2023-04-27T12:55:21.497Z,46.92
2023-04-27T12:58:05.129Z,45.74
2023-04-27T13:00:37.353Z,46.50
2023-04-27T13:03:10.440Z,45.32
2023-04-27T13:05:44.729Z,46.45
2023-04-27T13:08:17.310Z,47.09
2023-04-27T13:10:50.771Z,45.73
2023-04-27T13:13:23.243Z,46.40
2023-04-27T13:15:56.641Z,45.06
2023-04-27T13:18:32.911Z,46.07
2023-04-27T13:21:07.821Z,45.98
2023-04-27T13:23:40.386Z,45.66
2023-04-27T13:26:13.728Z,47.13
2023-04-27T13:28:46.485Z,46.51
2023-04-27T13:31:19.210Z,45.19
2023-04-27T13:33:51.728Z,45.47
2023-04-27T13:36:24.387Z,45.62
2023-04-27T13:38:57.989Z,45.54
2023-04-27T13:41:32.393Z,45.65
2023-04-27T13:44:05.556Z,45.25
2023-04-27T13:46:38.191Z,46.18
2023-04-27T13:49:12.057Z,45.99
2023-04-27T13:51:44.984Z,46.54
2023-04-27T13:54:17.747Z,47.23
2023-04-27T13:56:50.326Z,45.84
2023-04-27T13:59:22.973Z,46.48
2023-04-27T14:01:55.858Z,47.00
2023-04-27T14:04:28.369Z,47.26
2023-04-27T14:07:01.290Z,47.32
2023-04-27T14:09:33.573Z,47.14
2023-04-27T14:12:06.548Z,47.24
2023-04-27T14:14:39.690Z,48.24
2023-04-27T14:17:12.168Z,47.13
2023-04-27T14:19:44.394Z,46.31
2023-04-27T14:22:16.973Z,46.66
2023-04-27T14:24:50.489Z,46.67
2023-04-27T14:27:23.766Z,46.71
2023-04-27T14:29:56.221Z,46.48
2023-04-27T14:32:29.055Z,46.51
2023-04-27T14:35:02.929Z,45.22
2023-04-27T14:37:36.480Z,46.43
2023-04-27T14:40:11.269Z,45.40
2023-04-27T14:42:43.897Z,44.52
2023-04-27T14:45:18.364Z,44.97
2023-04-27T14:47:52.054Z,45.26
2023-04-27T14:50:24.457Z,45.41
2023-04-27T14:53:01.926Z,45.18
2023-04-27T14:55:34.346Z,45.66
2023-04-27T14:58:07.759Z,46.14
2023-04-27T15:00:40.134Z,45.95
2023-04-27T15:03:12.884Z,46.53
2023-04-27T15:05:45.299Z,46.55
2023-04-27T15:08:18.008Z,46.50
2023-04-27T15:10:50.622Z,47.69
2023-04-27T15:13:23.176Z,47.68
2023-04-27T15:15:58.351Z,47.93
2023-04-27T15:18:33.033Z,48.41
2023-04-27T15:21:06.027Z,48.53
2023-04-27T15:23:38.460Z,48.35
2023-04-27T15:26:11.160Z,49.35
2023-04-27T15:28:45.517Z,49.28
2023-04-27T15:31:18.286Z,49.98
2023-04-27T15:33:50.693Z,49.66
2023-04-27T15:36:26.833Z,49.85
2023-04-27T15:38:59.525Z,50.76
2023-04-27T15:41:32.399Z,50.89
2023-04-27T15:44:08.548Z,50.01
2023-04-27T15:46:41.651Z,50.81
2023-04-27T15:49:15.375Z,49.83
2023-04-27T15:51:48.202Z,49.64
2023-04-27T15:54:22.444Z,50.50
2023-04-27T15:56:55.138Z,50.01
2023-04-27T15:59:28.038Z,50.45
2023-04-27T16:02:01.301Z,50.17
2023-04-27T16:04:33.946Z,50.27
2023-04-27T16:07:07.396Z,50.81
2023-04-27T16:09:42.567Z,50.09
2023-04-27T16:12:14.985Z,50.58
2023-04-27T16:14:52.189Z,50.26
2023-04-27T16:17:24.891Z,50.65
2023-04-27T16:19:58.805Z,50.12
2023-04-27T16:22:32.077Z,50.78
2023-04-27T16:25:06.874Z,51.14
2023-04-27T16:27:39.760Z,52.14
2023-04-27T16:30:14.812Z,52.38
2023-04-27T16:32:48.670Z,52.48
2023-04-27T16:35:25.019Z,52.41
2023-04-27T16:37:57.975Z,52.72
2023-04-27T16:40:31.071Z,52.85
2023-04-27T16:43:04.506Z,54.63
2023-04-27T16:45:38.697Z,53.28
2023-04-27T16:48:13.287Z,52.45
2023-04-27T16:50:46.517Z,52.39
2023-04-27T16:53:21.357Z,52.72
2023-04-27T16:55:53.812Z,52.85
2023-04-27T16:58:26.585Z,52.37
2023-04-27T17:00:59.370Z,52.28
2023-04-27T17:03:36.174Z,52.53
2023-04-27T17:06:10.086Z,52.86
2023-04-27T17:08:42.649Z,53.10
2023-04-27T17:11:15.441Z,52.54
2023-04-27T17:13:49.755Z,52.76
2023-04-27T17:16:23.711Z,53.08
2023-04-27T17:19:00.413Z,53.23
2023-04-27T17:21:32.950Z,53.71
2023-04-27T17:24:06.674Z,54.20
2023-04-27T17:26:44.289Z,54.34
2023-04-27T17:29:17.189Z,54.69
2023-04-27T17:31:50.620Z,54.66
2023-04-27T17:34:24.575Z,55.36
2023-04-27T17:36:56.885Z,55.62
2023-04-27T17:39:29.646Z,55.72
2023-04-27T17:42:02.974Z,55.54
2023-04-27T17:44:39.547Z,55.59
2023-04-27T17:47:12.085Z,55.56
2023-04-27T17:49:44.756Z,55.88
2023-04-27T17:52:17.341Z,56.29
2023-04-27T17:54:51.362Z,56.83
2023-04-27T17:57:25.157Z,57.22
2023-04-27T17:59:57.966Z,57.86
2023-04-27T18:02:30.537Z,58.36
2023-04-27T18:05:05.770Z,58.35
2023-04-27T18:07:39.603Z,58.50
2023-04-27T18:10:13.641Z,58.90
2023-04-27T18:12:46.194Z,59.79
2023-04-27T18:15:18.480Z,60.45
2023-04-27T18:17:50.864Z,60.53
2023-04-27T18:20:23.526Z,60.75
2023-04-27T18:22:56.263Z,60.92
2023-04-27T18:25:28.674Z,61.77
2023-04-27T18:28:03.389Z,62.25
2023-04-27T18:30:40.385Z,63.12
2023-04-27T18:33:13.701Z,63.48
2023-04-27T18:35:46.345Z,64.26
2023-04-27T18:38:22.616Z,63.94
2023-04-27T18:40:55.185Z,64.36
2023-04-27T18:43:28.514Z,65.19
2023-04-27T18:46:03.070Z,65.03
2023-04-27T18:48:35.922Z,65.37
2023-04-27T18:51:13.156Z,65.80
2023-04-27T18:53:46.459Z,65.85
2023-04-27T18:56:18.946Z,66.36
2023-04-27T18:58:52.096Z,66.47
2023-04-27T19:01:26.978Z,66.91
2023-04-27T19:04:00.705Z,66.77
2023-04-27T19:06:32.262Z,66.10
2023-04-27T19:09:07.038Z,66.85
2023-04-27T19:11:40.144Z,67.58
2023-04-27T19:14:13.167Z,67.41
2023-04-27T19:16:46.418Z,67.02
2023-04-27T19:19:19.458Z,66.91
2023-04-27T19:21:52.272Z,67.61
2023-04-27T19:24:24.745Z,67.82
2023-04-27T19:26:57.106Z,68.13
2023-04-27T19:29:29.685Z,68.63
2023-04-27T19:32:02.438Z,69.17
2023-04-27T19:34:36.359Z,69.20
2023-04-27T19:37:08.754Z,69.43
2023-04-27T19:39:41.550Z,69.64
2023-04-27T19:42:15.449Z,69.90
2023-04-27T19:44:50.306Z,69.90
2023-04-27T19:47:24.206Z,69.93
2023-04-27T19:49:58.902Z,68.81
2023-04-27T19:52:34.813Z,69.44
2023-04-27T19:55:08.973Z,70.18
2023-04-27T19:57:46.082Z,70.42
2023-04-27T20:00:19.487Z,69.94
2023-04-27T20:02:53.636Z,69.90
2023-04-27T20:05:27.767Z,69.78
2023-04-27T20:08:00.323Z,69.77
2023-04-27T20:10:35.331Z,70.46
2023-04-27T20:13:07.883Z,70.42
2023-04-27T20:15:40.944Z,70.61
2023-04-27T20:18:13.753Z,70.78
2023-04-27T20:20:46.685Z,70.88
2023-04-27T20:23:19.760Z,71.03
2023-04-27T20:25:53.945Z,70.92
2023-04-27T20:28:24.935Z,70.40
2023-04-27T20:31:00.394Z,70.58
2023-04-27T20:33:36.385Z,71.44
2023-04-27T20:36:17.270Z,71.85
2023-04-27T20:38:51.029Z,72.35
2023-04-27T20:41:24.181Z,72.15
2023-04-27T20:43:56.962Z,72.29
2023-04-27T20:46:29.990Z,72.82
2023-04-27T20:49:02.814Z,73.53
2023-04-27T20:51:36.754Z,73.67
2023-04-27T20:54:10.749Z,72.88
2023-04-27T20:56:47.327Z,73.50
2023-04-27T20:59:20.084Z,74.00
2023-04-27T21:01:52.660Z,73.33
2023-04-27T21:04:26.315Z,73.95
2023-04-27T21:06:59.182Z,74.38
2023-04-27T21:09:31.790Z,73.97
2023-04-27T21:12:04.454Z,74.04
2023-04-27T21:14:37.793Z,74.00
2023-04-27T21:17:10.396Z,74.21
2023-04-27T21:19:44.058Z,74.22
2023-04-27T21:22:16.545Z,74.14
2023-04-27T21:24:49.041Z,74.07
2023-04-27T21:27:23.431Z,74.35
2023-04-27T21:29:56.240Z,74.75
2023-04-27T21:32:28.745Z,75.14
2023-04-27T21:35:01.330Z,75.31
2023-04-27T21:37:34.443Z,75.63
2023-04-27T21:40:09.620Z,75.22
2023-04-27T21:42:43.433Z,75.53
2023-04-27T21:45:16.943Z,75.08
2023-04-27T21:47:49.685Z,74.75
2023-04-27T21:50:22.849Z,75.01
2023-04-27T21:52:55.212Z,75.03
2023-04-27T21:55:27.550Z,75.16
2023-04-27T21:57:59.767Z,74.86
2023-04-27T22:00:34.711Z,75.05
2023-04-27T22:03:09.390Z,75.24
2023-04-27T22:05:41.960Z,75.88
2023-04-27T22:08:14.642Z,76.00
2023-04-27T22:10:50.028Z,76.48
2023-04-27T22:13:23.523Z,76.30
2023-04-27T22:15:56.199Z,75.94
2023-04-27T22:18:29.302Z,75.87
2023-04-27T22:21:02.040Z,76.50
2023-04-27T22:23:34.972Z,76.93
2023-04-27T22:26:09.109Z,76.59
2023-04-27T22:28:42.675Z,76.59
2023-04-27T22:31:15.606Z,76.59
2023-04-27T22:33:48.704Z,75.77
2023-04-27T22:36:20.995Z,76.84
2023-04-27T22:38:54.384Z,76.98
2023-04-27T22:41:26.656Z,76.74
2023-04-27T22:43:59.345Z,77.12
2023-04-27T22:46:31.667Z,77.65
2023-04-27T22:49:06.549Z,76.86
2023-04-27T22:51:38.882Z,76.92
2023-04-27T22:54:14.168Z,77.68
2023-04-27T22:56:47.260Z,77.78
2023-04-27T22:59:23.035Z,78.06
2023-04-27T23:01:55.279Z,77.90
2023-04-27T23:04:29.282Z,77.57
2023-04-27T23:07:03.729Z,78.01
2023-04-27T23:09:35.567Z,77.49
2023-04-27T23:12:09.230Z,77.78
2023-04-27T23:14:42.748Z,77.16
2023-04-27T23:17:15.702Z,77.43
2023-04-27T23:19:49.728Z,78.01
2023-04-27T23:22:22.166Z,76.50
2023-04-27T23:24:54.819Z,77.29
2023-04-27T23:27:28.230Z,78.21
2023-04-27T23:30:00.904Z,78.22
2023-04-27T23:32:33.526Z,78.08
2023-04-27T23:35:09.751Z,78.03
2023-04-27T23:37:44.169Z,78.41
2023-04-27T23:40:17.361Z,78.09
2023-04-27T23:42:51.546Z,77.60
2023-04-27T23:45:24.544Z,78.27
2023-04-27T23:47:59.449Z,78.87
2023-04-27T23:50:33.990Z,78.77
2023-04-27T23:53:08.765Z,78.65
2023-04-27T23:55:42.000Z,78.86
2023-04-27T23:58:15.653Z,79.10
